sensor_id;sensor_type;location;lat;lon;timestamp;P1;durP1;ratioP1;P2;durP2;ratioP2
209;SDS011;90;48.810;9.120;2023-03-23T00:01:32;2.93;;;2.70;;
209;SDS011;90;48.810;9.120;2023-03-23T00:04:01;3.47;;;2.20;;
209;SDS011;90;48.810;9.120;2023-03-23T00:06:29;3.77;;;2.70;;
209;SDS011;90;48.810;9.120;2023-03-23T00:08:58;2.80;;;2.20;;
209;SDS011;90;48.810;9.120;2023-03-23T00:11:28;2.70;;;2.50;;
209;SDS011;90;48.810;9.120;2023-03-23T00:13:57;3.30;;;2.97;;
209;SDS011;90;48.810;9.120;2023-03-23T00:16:26;2.90;;;2.47;;
209;SDS011;90;48.810;9.120;2023-03-23T00:18:55;2.80;;;2.60;;
209;SDS011;90;48.810;9.120;2023-03-23T00:21:24;2.60;;;2.40;;
209;SDS011;90;48.810;9.120;2023-03-23T00:23:59;3.43;;;3.23;;
209;SDS011;90;48.810;9.120;2023-03-23T00:26:32;3.17;;;2.50;;
209;SDS011;90;48.810;9.120;2023-03-23T00:29:02;3.90;;;2.30;;
209;SDS011;90;48.810;9.120;2023-03-23T00:31:30;2.83;;;2.40;;
209;SDS011;90;48.810;9.120;2023-03-23T00:33:57;2.30;;;2.20;;
209;SDS011;90;48.810;9.120;2023-03-23T00:36:26;2.73;;;2.30;;
209;SDS011;90;48.810;9.120;2023-03-23T00:38:54;6.87;;;3.07;;
209;SDS011;90;48.810;9.120;2023-03-23T00:41:24;3.10;;;2.60;;
209;SDS011;90;48.810;9.120;2023-03-23T00:43:54;2.87;;;2.33;;
209;SDS011;90;48.810;9.120;2023-03-23T00:46:21;5.60;;;2.90;;
209;SDS011;90;48.810;9.120;2023-03-23T00:48:49;2.30;;;2.10;;
209;SDS011;90;48.810;9.120;2023-03-23T00:51:17;2.80;;;2.60;;
209;SDS011;90;48.810;9.120;2023-03-23T00:53:44;5.10;;;2.60;;
209;SDS011;90;48.810;9.120;2023-03-23T00:56:11;2.53;;;2.40;;
209;SDS011;90;48.810;9.120;2023-03-23T00:58:38;6.00;;;3.00;;
209;SDS011;90;48.810;9.120;2023-03-23T01:01:07;3.40;;;2.70;;
209;SDS011;90;48.810;9.120;2023-03-23T01:03:34;2.77;;;2.60;;
209;SDS011;90;48.810;9.120;2023-03-23T01:06:08;5.70;;;2.50;;
209;SDS011;90;48.810;9.120;2023-03-23T01:08:38;7.70;;;2.67;;
209;SDS011;90;48.810;9.120;2023-03-23T01:11:10;3.33;;;2.57;;
209;SDS011;90;48.810;9.120;2023-03-23T01:13:38;3.10;;;2.67;;
209;SDS011;90;48.810;9.120;2023-03-23T01:16:06;3.40;;;2.97;;
209;SDS011;90;48.810;9.120;2023-03-23T01:18:33;2.70;;;2.50;;
209;SDS011;90;48.810;9.120;2023-03-23T01:21:03;2.93;;;2.73;;
209;SDS011;90;48.810;9.120;2023-03-23T01:23:31;2.87;;;2.30;;
209;SDS011;90;48.810;9.120;2023-03-23T01:26:01;3.30;;;3.10;;
209;SDS011;90;48.810;9.120;2023-03-23T01:28:29;3.00;;;2.53;;
209;SDS011;90;48.810;9.120;2023-03-23T01:30:58;2.90;;;2.70;;
209;SDS011;90;48.810;9.120;2023-03-23T01:33:27;2.80;;;2.63;;
209;SDS011;90;48.810;9.120;2023-03-23T01:35:56;2.67;;;2.47;;
209;SDS011;90;48.810;9.120;2023-03-23T01:38:23;2.80;;;2.60;;
209;SDS011;90;48.810;9.120;2023-03-23T01:40:50;3.17;;;2.97;;
209;SDS011;90;48.810;9.120;2023-03-23T01:43:17;2.80;;;2.60;;
209;SDS011;90;48.810;9.120;2023-03-23T01:45:44;6.70;;;2.80;;
209;SDS011;90;48.810;9.120;2023-03-23T01:48:12;3.63;;;2.60;;
209;SDS011;90;48.810;9.120;2023-03-23T01:50:47;3.60;;;2.80;;
209;SDS011;90;48.810;9.120;2023-03-23T01:53:18;4.30;;;2.90;;
209;SDS011;90;48.810;9.120;2023-03-23T01:55:45;3.00;;;2.83;;
209;SDS011;90;48.810;9.120;2023-03-23T01:58:16;3.67;;;2.90;;
209;SDS011;90;48.810;9.120;2023-03-23T02:00:45;3.47;;;3.07;;
209;SDS011;90;48.810;9.120;2023-03-23T02:03:13;3.93;;;3.00;;
209;SDS011;90;48.810;9.120;2023-03-23T02:05:43;2.80;;;2.60;;
209;SDS011;90;48.810;9.120;2023-03-23T02:08:11;4.23;;;2.50;;
209;SDS011;90;48.810;9.120;2023-03-23T02:10:40;6.17;;;3.10;;
209;SDS011;90;48.810;9.120;2023-03-23T02:13:08;4.70;;;2.80;;
209;SDS011;90;48.810;9.120;2023-03-23T02:15:39;3.23;;;3.03;;
209;SDS011;90;48.810;9.120;2023-03-23T02:18:13;2.60;;;2.40;;
209;SDS011;90;48.810;9.120;2023-03-23T02:20:54;2.80;;;2.60;;
209;SDS011;90;48.810;9.120;2023-03-23T02:23:41;4.30;;;3.20;;
209;SDS011;90;48.810;9.120;2023-03-23T02:26:25;3.33;;;2.80;;
209;SDS011;90;48.810;9.120;2023-03-23T02:29:13;3.23;;;3.03;;
209;SDS011;90;48.810;9.120;2023-03-23T02:32:04;2.90;;;2.70;;
209;SDS011;90;48.810;9.120;2023-03-23T02:34:39;4.20;;;2.90;;
209;SDS011;90;48.810;9.120;2023-03-23T02:37:09;3.13;;;2.93;;
209;SDS011;90;48.810;9.120;2023-03-23T02:39:42;3.10;;;2.93;;
209;SDS011;90;48.810;9.120;2023-03-23T02:42:12;3.20;;;3.07;;
209;SDS011;90;48.810;9.120;2023-03-23T02:44:42;3.20;;;3.03;;
209;SDS011;90;48.810;9.120;2023-03-23T02:47:12;4.27;;;2.90;;
209;SDS011;90;48.810;9.120;2023-03-23T02:49:45;3.93;;;3.10;;
209;SDS011;90;48.810;9.120;2023-03-23T02:52:14;5.50;;;3.17;;
209;SDS011;90;48.810;9.120;2023-03-23T02:54:46;4.00;;;2.90;;
209;SDS011;90;48.810;9.120;2023-03-23T02:57:15;3.20;;;3.00;;
209;SDS011;90;48.810;9.120;2023-03-23T02:59:42;4.47;;;2.90;;
209;SDS011;90;48.810;9.120;2023-03-23T03:02:09;3.30;;;3.10;;
209;SDS011;90;48.810;9.120;2023-03-23T03:04:41;3.37;;;3.17;;
209;SDS011;90;48.810;9.120;2023-03-23T03:10:15;4.47;;;2.93;;
209;SDS011;90;48.810;9.120;2023-03-23T03:12:50;3.40;;;3.20;;
209;SDS011;90;48.810;9.120;2023-03-23T03:15:24;4.40;;;3.17;;
209;SDS011;90;48.810;9.120;2023-03-23T03:17:58;3.60;;;3.40;;
209;SDS011;90;48.810;9.120;2023-03-23T03:20:29;3.43;;;3.23;;
209;SDS011;90;48.810;9.120;2023-03-23T03:22:59;5.30;;;3.10;;
209;SDS011;90;48.810;9.120;2023-03-23T03:25:27;3.70;;;3.30;;
209;SDS011;90;48.810;9.120;2023-03-23T03:27:55;3.70;;;2.97;;
209;SDS011;90;48.810;9.120;2023-03-23T03:30:23;3.10;;;2.90;;
209;SDS011;90;48.810;9.120;2023-03-23T03:32:53;3.53;;;2.90;;
209;SDS011;90;48.810;9.120;2023-03-23T03:35:20;3.30;;;3.10;;
209;SDS011;90;48.810;9.120;2023-03-23T03:37:47;3.03;;;2.83;;
209;SDS011;90;48.810;9.120;2023-03-23T03:40:18;2.90;;;2.70;;
209;SDS011;90;48.810;9.120;2023-03-23T03:42:47;4.50;;;3.30;;
209;SDS011;90;48.810;9.120;2023-03-23T03:45:14;3.70;;;3.50;;
209;SDS011;90;48.810;9.120;2023-03-23T03:47:42;5.10;;;2.87;;
209;SDS011;90;48.810;9.120;2023-03-23T03:50:09;4.43;;;3.13;;
209;SDS011;90;48.810;9.120;2023-03-23T03:52:36;4.20;;;2.60;;
209;SDS011;90;48.810;9.120;2023-03-23T03:55:05;3.40;;;3.10;;
209;SDS011;90;48.810;9.120;2023-03-23T03:57:34;3.20;;;3.00;;
209;SDS011;90;48.810;9.120;2023-03-23T04:00:01;3.73;;;3.20;;
209;SDS011;90;48.810;9.120;2023-03-23T04:02:37;4.20;;;3.47;;
209;SDS011;90;48.810;9.120;2023-03-23T04:05:05;3.60;;;3.03;;
209;SDS011;90;48.810;9.120;2023-03-23T04:07:33;2.87;;;2.77;;
209;SDS011;90;48.810;9.120;2023-03-23T04:10:03;2.90;;;2.63;;
209;SDS011;90;48.810;9.120;2023-03-23T04:12:30;2.80;;;2.60;;
209;SDS011;90;48.810;9.120;2023-03-23T04:14:59;3.10;;;2.90;;
209;SDS011;90;48.810;9.120;2023-03-23T04:17:26;2.63;;;2.47;;
209;SDS011;90;48.810;9.120;2023-03-23T04:19:52;5.40;;;2.97;;
209;SDS011;90;48.810;9.120;2023-03-23T04:22:21;4.70;;;2.87;;
209;SDS011;90;48.810;9.120;2023-03-23T04:24:54;3.33;;;3.13;;
209;SDS011;90;48.810;9.120;2023-03-23T04:27:23;2.87;;;2.67;;
209;SDS011;90;48.810;9.120;2023-03-23T04:29:52;4.77;;;3.30;;
209;SDS011;90;48.810;9.120;2023-03-23T04:32:22;2.97;;;2.50;;
209;SDS011;90;48.810;9.120;2023-03-23T04:34:49;2.90;;;2.70;;
209;SDS011;90;48.810;9.120;2023-03-23T04:37:16;3.40;;;3.20;;
209;SDS011;90;48.810;9.120;2023-03-23T04:39:43;2.60;;;2.30;;
209;SDS011;90;48.810;9.120;2023-03-23T04:42:10;3.20;;;2.60;;
209;SDS011;90;48.810;9.120;2023-03-23T04:44:38;3.03;;;2.83;;
209;SDS011;90;48.810;9.120;2023-03-23T04:47:07;2.70;;;2.50;;
209;SDS011;90;48.810;9.120;2023-03-23T04:49:35;3.70;;;2.80;;
209;SDS011;90;48.810;9.120;2023-03-23T04:52:03;2.80;;;2.60;;
209;SDS011;90;48.810;9.120;2023-03-23T04:54:30;4.33;;;3.00;;
209;SDS011;90;48.810;9.120;2023-03-23T04:56:57;5.10;;;2.80;;
209;SDS011;90;48.810;9.120;2023-03-23T04:59:24;6.60;;;2.73;;
209;SDS011;90;48.810;9.120;2023-03-23T05:01:52;3.57;;;3.03;;
209;SDS011;90;48.810;9.120;2023-03-23T05:04:21;3.07;;;2.73;;
209;SDS011;90;48.810;9.120;2023-03-23T05:06:51;3.10;;;2.90;;
209;SDS011;90;48.810;9.120;2023-03-23T05:09:18;2.77;;;2.60;;
209;SDS011;90;48.810;9.120;2023-03-23T05:11:45;3.83;;;3.07;;
209;SDS011;90;48.810;9.120;2023-03-23T05:14:12;6.00;;;2.87;;
209;SDS011;90;48.810;9.120;2023-03-23T05:16:40;2.60;;;2.40;;
209;SDS011;90;48.810;9.120;2023-03-23T05:19:06;2.83;;;2.63;;
209;SDS011;90;48.810;9.120;2023-03-23T05:21:33;3.43;;;3.00;;
209;SDS011;90;48.810;9.120;2023-03-23T05:24:01;2.83;;;2.63;;
209;SDS011;90;48.810;9.120;2023-03-23T05:26:28;2.73;;;2.57;;
209;SDS011;90;48.810;9.120;2023-03-23T05:28:55;4.77;;;2.70;;
209;SDS011;90;48.810;9.120;2023-03-23T05:31:22;3.60;;;3.13;;
209;SDS011;90;48.810;9.120;2023-03-23T05:33:49;2.90;;;2.70;;
209;SDS011;90;48.810;9.120;2023-03-23T05:36:16;5.17;;;3.30;;
209;SDS011;90;48.810;9.120;2023-03-23T05:38:43;3.20;;;2.57;;
209;SDS011;90;48.810;9.120;2023-03-23T05:41:15;3.60;;;2.70;;
209;SDS011;90;48.810;9.120;2023-03-23T05:43:42;3.10;;;2.87;;
209;SDS011;90;48.810;9.120;2023-03-23T05:46:09;2.93;;;2.73;;
209;SDS011;90;48.810;9.120;2023-03-23T05:48:36;5.10;;;2.77;;
209;SDS011;90;48.810;9.120;2023-03-23T05:51:03;3.07;;;2.90;;
209;SDS011;90;48.810;9.120;2023-03-23T05:53:30;4.70;;;3.00;;
209;SDS011;90;48.810;9.120;2023-03-23T05:55:58;3.50;;;3.33;;
209;SDS011;90;48.810;9.120;2023-03-23T05:58:27;3.00;;;2.80;;
209;SDS011;90;48.810;9.120;2023-03-23T06:00:54;3.03;;;2.77;;
209;SDS011;90;48.810;9.120;2023-03-23T06:03:21;3.40;;;3.20;;
209;SDS011;90;48.810;9.120;2023-03-23T06:05:48;3.27;;;3.10;;
209;SDS011;90;48.810;9.120;2023-03-23T06:08:16;2.80;;;2.60;;
209;SDS011;90;48.810;9.120;2023-03-23T06:10:43;3.10;;;2.90;;
209;SDS011;90;48.810;9.120;2023-03-23T06:13:10;3.47;;;2.93;;
209;SDS011;90;48.810;9.120;2023-03-23T06:15:38;3.10;;;2.90;;
209;SDS011;90;48.810;9.120;2023-03-23T06:18:05;4.17;;;3.10;;
209;SDS011;90;48.810;9.120;2023-03-23T06:20:32;4.60;;;3.40;;
209;SDS011;90;48.810;9.120;2023-03-23T06:23:00;3.23;;;3.03;;
209;SDS011;90;48.810;9.120;2023-03-23T06:25:28;3.30;;;3.10;;
209;SDS011;90;48.810;9.120;2023-03-23T06:27:54;5.63;;;3.47;;
209;SDS011;90;48.810;9.120;2023-03-23T06:30:21;3.20;;;2.83;;
209;SDS011;90;48.810;9.120;2023-03-23T06:32:49;3.20;;;3.10;;
209;SDS011;90;48.810;9.120;2023-03-23T06:35:17;3.80;;;3.30;;
209;SDS011;90;48.810;9.120;2023-03-23T06:37:43;3.00;;;2.60;;
209;SDS011;90;48.810;9.120;2023-03-23T06:40:11;3.47;;;3.30;;
209;SDS011;90;48.810;9.120;2023-03-23T06:42:37;7.93;;;3.33;;
209;SDS011;90;48.810;9.120;2023-03-23T06:45:04;4.10;;;3.23;;
209;SDS011;90;48.810;9.120;2023-03-23T06:47:32;4.10;;;2.92;;
209;SDS011;90;48.810;9.120;2023-03-23T06:50:01;3.77;;;3.00;;
209;SDS011;90;48.810;9.120;2023-03-23T06:52:27;4.80;;;3.80;;
209;SDS011;90;48.810;9.120;2023-03-23T06:54:54;3.27;;;3.10;;
209;SDS011;90;48.810;9.120;2023-03-23T06:57:21;3.60;;;3.10;;
209;SDS011;90;48.810;9.120;2023-03-23T06:59:48;3.87;;;3.67;;
209;SDS011;90;48.810;9.120;2023-03-23T07:02:16;3.90;;;3.00;;
209;SDS011;90;48.810;9.120;2023-03-23T07:04:43;4.13;;;3.90;;
209;SDS011;90;48.810;9.120;2023-03-23T07:07:11;5.60;;;4.10;;
209;SDS011;90;48.810;9.120;2023-03-23T07:09:39;5.33;;;3.43;;
209;SDS011;90;48.810;9.120;2023-03-23T07:12:07;4.00;;;3.33;;
209;SDS011;90;48.810;9.120;2023-03-23T07:14:34;3.10;;;2.90;;
209;SDS011;90;48.810;9.120;2023-03-23T07:17:02;4.70;;;3.03;;
209;SDS011;90;48.810;9.120;2023-03-23T07:19:29;6.50;;;3.27;;
209;SDS011;90;48.810;9.120;2023-03-23T07:21:55;5.70;;;3.83;;
209;SDS011;90;48.810;9.120;2023-03-23T07:24:24;4.07;;;3.30;;
209;SDS011;90;48.810;9.120;2023-03-23T07:26:51;3.43;;;3.23;;
209;SDS011;90;48.810;9.120;2023-03-23T07:29:18;5.60;;;3.10;;
209;SDS011;90;48.810;9.120;2023-03-23T07:31:45;5.63;;;3.30;;
209;SDS011;90;48.810;9.120;2023-03-23T07:34:12;5.83;;;4.00;;
209;SDS011;90;48.810;9.120;2023-03-23T07:36:38;3.60;;;2.90;;
209;SDS011;90;48.810;9.120;2023-03-23T07:39:05;3.60;;;3.50;;
209;SDS011;90;48.810;9.120;2023-03-23T07:41:33;4.50;;;3.23;;
209;SDS011;90;48.810;9.120;2023-03-23T07:44:00;3.83;;;3.13;;
209;SDS011;90;48.810;9.120;2023-03-23T07:46:27;15.23;;;3.67;;
209;SDS011;90;48.810;9.120;2023-03-23T07:48:54;4.90;;;3.33;;
209;SDS011;90;48.810;9.120;2023-03-23T07:51:22;5.20;;;3.40;;
209;SDS011;90;48.810;9.120;2023-03-23T07:53:49;4.10;;;3.57;;
209;SDS011;90;48.810;9.120;2023-03-23T07:56:16;4.10;;;3.40;;
209;SDS011;90;48.810;9.120;2023-03-23T07:58:46;3.63;;;3.43;;
209;SDS011;90;48.810;9.120;2023-03-23T08:01:13;8.40;;;3.50;;
209;SDS011;90;48.810;9.120;2023-03-23T08:03:40;3.30;;;3.10;;
209;SDS011;90;48.810;9.120;2023-03-23T08:06:07;6.18;;;3.17;;
209;SDS011;90;48.810;9.120;2023-03-23T08:08:34;3.87;;;3.67;;
209;SDS011;90;48.810;9.120;2023-03-23T08:11:02;3.97;;;3.20;;
209;SDS011;90;48.810;9.120;2023-03-23T08:13:29;3.70;;;3.50;;
209;SDS011;90;48.810;9.120;2023-03-23T08:15:57;3.70;;;3.27;;
209;SDS011;90;48.810;9.120;2023-03-23T08:18:25;6.57;;;3.70;;
209;SDS011;90;48.810;9.120;2023-03-23T08:20:52;5.97;;;3.57;;
209;SDS011;90;48.810;9.120;2023-03-23T08:23:19;3.83;;;3.63;;
209;SDS011;90;48.810;9.120;2023-03-23T08:25:46;6.20;;;3.10;;
209;SDS011;90;48.810;9.120;2023-03-23T08:28:13;8.70;;;3.60;;
209;SDS011;90;48.810;9.120;2023-03-23T08:30:40;3.70;;;3.50;;
209;SDS011;90;48.810;9.120;2023-03-23T08:33:09;5.13;;;3.80;;
209;SDS011;90;48.810;9.120;2023-03-23T08:35:37;5.43;;;4.23;;
209;SDS011;90;48.810;9.120;2023-03-23T08:38:03;3.80;;;3.30;;
209;SDS011;90;48.810;9.120;2023-03-23T08:40:31;3.67;;;3.50;;
209;SDS011;90;48.810;9.120;2023-03-23T08:42:58;3.80;;;3.17;;
209;SDS011;90;48.810;9.120;2023-03-23T08:45:25;5.20;;;3.60;;
209;SDS011;90;48.810;9.120;2023-03-23T08:47:53;4.80;;;3.50;;
209;SDS011;90;48.810;9.120;2023-03-23T08:50:23;3.10;;;2.90;;
209;SDS011;90;48.810;9.120;2023-03-23T08:52:51;3.80;;;3.60;;
209;SDS011;90;48.810;9.120;2023-03-23T08:55:21;3.40;;;3.20;;
209;SDS011;90;48.810;9.120;2023-03-23T08:57:49;3.70;;;3.50;;
209;SDS011;90;48.810;9.120;2023-03-23T09:00:17;5.70;;;3.47;;
209;SDS011;90;48.810;9.120;2023-03-23T09:02:46;3.57;;;3.43;;
209;SDS011;90;48.810;9.120;2023-03-23T09:05:14;3.92;;;3.30;;
209;SDS011;90;48.810;9.120;2023-03-23T09:07:44;5.00;;;3.30;;
209;SDS011;90;48.810;9.120;2023-03-23T09:10:13;3.53;;;3.33;;
209;SDS011;90;48.810;9.120;2023-03-23T09:12:43;3.63;;;3.07;;
209;SDS011;90;48.810;9.120;2023-03-23T09:15:13;3.30;;;3.10;;
209;SDS011;90;48.810;9.120;2023-03-23T09:17:41;3.40;;;3.20;;
209;SDS011;90;48.810;9.120;2023-03-23T09:20:09;3.23;;;3.03;;
209;SDS011;90;48.810;9.120;2023-03-23T09:22:38;3.73;;;3.20;;
209;SDS011;90;48.810;9.120;2023-03-23T09:25:08;5.30;;;3.43;;
209;SDS011;90;48.810;9.120;2023-03-23T09:27:36;4.10;;;3.30;;
209;SDS011;90;48.810;9.120;2023-03-23T09:30:04;5.90;;;3.30;;
209;SDS011;90;48.810;9.120;2023-03-23T09:32:32;3.50;;;3.30;;
209;SDS011;90;48.810;9.120;2023-03-23T09:34:59;4.93;;;3.40;;
209;SDS011;90;48.810;9.120;2023-03-23T09:37:27;4.80;;;3.50;;
209;SDS011;90;48.810;9.120;2023-03-23T09:39:54;3.47;;;3.30;;
209;SDS011;90;48.810;9.120;2023-03-23T09:42:28;4.97;;;3.40;;
209;SDS011;90;48.810;9.120;2023-03-23T09:45:06;6.87;;;3.90;;
209;SDS011;90;48.810;9.120;2023-03-23T09:47:40;4.00;;;3.90;;
209;SDS011;90;48.810;9.120;2023-03-23T09:50:14;3.43;;;3.30;;
209;SDS011;90;48.810;9.120;2023-03-23T09:52:44;4.20;;;3.70;;
209;SDS011;90;48.810;9.120;2023-03-23T09:55:14;4.80;;;3.60;;
209;SDS011;90;48.810;9.120;2023-03-23T09:57:45;4.93;;;4.20;;
209;SDS011;90;48.810;9.120;2023-03-23T10:00:25;4.60;;;3.20;;
209;SDS011;90;48.810;9.120;2023-03-23T10:02:59;3.83;;;3.07;;
209;SDS011;90;48.810;9.120;2023-03-23T10:05:30;3.70;;;3.50;;
209;SDS011;90;48.810;9.120;2023-03-23T10:07:58;8.77;;;3.27;;
209;SDS011;90;48.810;9.120;2023-03-23T10:10:35;3.67;;;3.47;;
209;SDS011;90;48.810;9.120;2023-03-23T10:13:12;3.40;;;3.20;;
209;SDS011;90;48.810;9.120;2023-03-23T10:15:46;3.30;;;3.10;;
209;SDS011;90;48.810;9.120;2023-03-23T10:18:15;3.37;;;3.13;;
209;SDS011;90;48.810;9.120;2023-03-23T10:20:46;4.80;;;3.50;;
209;SDS011;90;48.810;9.120;2023-03-23T10:23:24;4.00;;;3.70;;
209;SDS011;90;48.810;9.120;2023-03-23T10:26:21;4.50;;;3.00;;
209;SDS011;90;48.810;9.120;2023-03-23T10:28:58;3.23;;;3.07;;
209;SDS011;90;48.810;9.120;2023-03-23T10:31:35;3.27;;;3.07;;
209;SDS011;90;48.810;9.120;2023-03-23T10:34:08;5.00;;;3.40;;
209;SDS011;90;48.810;9.120;2023-03-23T10:36:40;3.67;;;3.47;;
209;SDS011;90;48.810;9.120;2023-03-23T10:39:18;3.03;;;2.83;;
209;SDS011;90;48.810;9.120;2023-03-23T10:41:47;3.23;;;3.03;;
209;SDS011;90;48.810;9.120;2023-03-23T10:44:16;3.23;;;3.10;;
209;SDS011;90;48.810;9.120;2023-03-23T10:46:45;4.10;;;2.97;;
209;SDS011;90;48.810;9.120;2023-03-23T10:49:19;2.80;;;2.70;;
209;SDS011;90;48.810;9.120;2023-03-23T10:51:51;4.20;;;3.20;;
209;SDS011;90;48.810;9.120;2023-03-23T10:54:26;3.37;;;3.17;;
209;SDS011;90;48.810;9.120;2023-03-23T10:56:57;2.80;;;2.60;;
209;SDS011;90;48.810;9.120;2023-03-23T10:59:28;3.87;;;3.17;;
209;SDS011;90;48.810;9.120;2023-03-23T11:01:58;4.67;;;3.77;;
209;SDS011;90;48.810;9.120;2023-03-23T11:04:28;3.20;;;3.00;;
209;SDS011;90;48.810;9.120;2023-03-23T11:06:58;3.37;;;3.17;;
209;SDS011;90;48.810;9.120;2023-03-23T11:09:33;3.47;;;3.10;;
209;SDS011;90;48.810;9.120;2023-03-23T11:12:01;3.57;;;3.37;;
209;SDS011;90;48.810;9.120;2023-03-23T11:14:31;3.30;;;3.10;;
209;SDS011;90;48.810;9.120;2023-03-23T11:17:00;8.60;;;3.80;;
209;SDS011;90;48.810;9.120;2023-03-23T11:19:28;5.73;;;3.00;;
209;SDS011;90;48.810;9.120;2023-03-23T11:21:57;3.60;;;3.30;;
209;SDS011;90;48.810;9.120;2023-03-23T11:24:33;4.10;;;3.10;;
209;SDS011;90;48.810;9.120;2023-03-23T11:27:01;4.63;;;3.50;;
209;SDS011;90;48.810;9.120;2023-03-23T11:29:33;4.00;;;3.40;;
209;SDS011;90;48.810;9.120;2023-03-23T11:32:02;3.30;;;3.10;;
209;SDS011;90;48.810;9.120;2023-03-23T11:34:32;4.23;;;3.97;;
209;SDS011;90;48.810;9.120;2023-03-23T11:37:05;3.27;;;3.07;;
209;SDS011;90;48.810;9.120;2023-03-23T11:39:47;4.30;;;3.30;;
209;SDS011;90;48.810;9.120;2023-03-23T11:42:18;4.03;;;3.70;;
209;SDS011;90;48.810;9.120;2023-03-23T11:44:47;3.97;;;3.77;;
209;SDS011;90;48.810;9.120;2023-03-23T11:47:16;4.80;;;3.73;;
209;SDS011;90;48.810;9.120;2023-03-23T11:49:50;5.23;;;3.23;;
209;SDS011;90;48.810;9.120;2023-03-23T11:52:23;3.77;;;3.57;;
209;SDS011;90;48.810;9.120;2023-03-23T11:54:59;5.50;;;2.80;;
209;SDS011;90;48.810;9.120;2023-03-23T11:57:33;3.67;;;3.47;;
209;SDS011;90;48.810;9.120;2023-03-23T12:00:02;4.57;;;4.27;;
209;SDS011;90;48.810;9.120;2023-03-23T12:02:39;3.73;;;3.53;;
209;SDS011;90;48.810;9.120;2023-03-23T12:05:33;5.87;;;3.23;;
209;SDS011;90;48.810;9.120;2023-03-23T12:08:10;6.30;;;3.80;;
209;SDS011;90;48.810;9.120;2023-03-23T12:10:49;3.60;;;3.40;;
209;SDS011;90;48.810;9.120;2023-03-23T12:13:26;6.13;;;3.70;;
209;SDS011;90;48.810;9.120;2023-03-23T12:16:19;4.20;;;3.43;;
209;SDS011;90;48.810;9.120;2023-03-23T12:18:57;3.97;;;3.70;;
209;SDS011;90;48.810;9.120;2023-03-23T12:21:32;5.10;;;3.43;;
209;SDS011;90;48.810;9.120;2023-03-23T12:24:04;3.78;;;3.40;;
209;SDS011;90;48.810;9.120;2023-03-23T12:26:41;4.70;;;3.73;;
209;SDS011;90;48.810;9.120;2023-03-23T12:29:18;3.90;;;3.20;;
209;SDS011;90;48.810;9.120;2023-03-23T12:31:56;5.83;;;3.40;;
209;SDS011;90;48.810;9.120;2023-03-23T12:34:36;5.93;;;3.27;;
209;SDS011;90;48.810;9.120;2023-03-23T12:37:11;5.30;;;3.50;;
209;SDS011;90;48.810;9.120;2023-03-23T12:39:57;4.70;;;3.37;;
209;SDS011;90;48.810;9.120;2023-03-23T12:42:36;3.83;;;3.63;;
209;SDS011;90;48.810;9.120;2023-03-23T12:45:13;8.30;;;4.30;;
209;SDS011;90;48.810;9.120;2023-03-23T12:47:49;4.47;;;4.03;;
209;SDS011;90;48.810;9.120;2023-03-23T12:50:23;3.70;;;3.50;;
209;SDS011;90;48.810;9.120;2023-03-23T12:52:57;4.00;;;3.80;;
209;SDS011;90;48.810;9.120;2023-03-23T12:55:30;4.10;;;3.90;;
209;SDS011;90;48.810;9.120;2023-03-23T12:58:02;4.23;;;3.97;;
209;SDS011;90;48.810;9.120;2023-03-23T13:00:33;4.60;;;3.40;;
209;SDS011;90;48.810;9.120;2023-03-23T13:03:20;3.87;;;3.20;;
209;SDS011;90;48.810;9.120;2023-03-23T13:05:53;4.37;;;3.60;;
209;SDS011;90;48.810;9.120;2023-03-23T13:08:25;4.77;;;4.07;;
209;SDS011;90;48.810;9.120;2023-03-23T13:10:57;5.70;;;3.40;;
209;SDS011;90;48.810;9.120;2023-03-23T13:16:14;5.13;;;3.20;;
209;SDS011;90;48.810;9.120;2023-03-23T13:18:53;4.87;;;3.33;;
209;SDS011;90;48.810;9.120;2023-03-23T13:21:29;5.40;;;3.57;;
209;SDS011;90;48.810;9.120;2023-03-23T13:23:58;4.30;;;4.00;;
209;SDS011;90;48.810;9.120;2023-03-23T13:26:28;4.13;;;3.63;;
209;SDS011;90;48.810;9.120;2023-03-23T13:28:56;4.10;;;3.90;;
209;SDS011;90;48.810;9.120;2023-03-23T13:31:27;3.70;;;3.47;;
209;SDS011;90;48.810;9.120;2023-03-23T13:34:00;4.83;;;4.37;;
209;SDS011;90;48.810;9.120;2023-03-23T13:36:30;3.50;;;3.33;;
209;SDS011;90;48.810;9.120;2023-03-23T13:39:01;3.67;;;3.50;;
209;SDS011;90;48.810;9.120;2023-03-23T13:41:32;6.33;;;3.90;;
209;SDS011;90;48.810;9.120;2023-03-23T13:44:14;3.97;;;3.77;;
209;SDS011;90;48.810;9.120;2023-03-23T13:46:53;4.10;;;3.90;;
209;SDS011;90;48.810;9.120;2023-03-23T13:49:22;4.57;;;4.13;;
209;SDS011;90;48.810;9.120;2023-03-23T13:54:43;7.90;;;4.40;;
209;SDS011;90;48.810;9.120;2023-03-23T13:57:19;5.07;;;4.50;;
209;SDS011;90;48.810;9.120;2023-03-23T13:59:55;5.40;;;3.60;;
209;SDS011;90;48.810;9.120;2023-03-23T14:02:30;6.00;;;4.23;;
209;SDS011;90;48.810;9.120;2023-03-23T14:05:29;4.60;;;3.63;;
209;SDS011;90;48.810;9.120;2023-03-23T14:07:59;4.20;;;3.63;;
209;SDS011;90;48.810;9.120;2023-03-23T14:10:32;12.20;;;3.83;;
209;SDS011;90;48.810;9.120;2023-03-23T14:13:01;3.93;;;3.80;;
209;SDS011;90;48.810;9.120;2023-03-23T14:15:37;4.20;;;3.90;;
209;SDS011;90;48.810;9.120;2023-03-23T14:18:11;4.07;;;3.87;;
209;SDS011;90;48.810;9.120;2023-03-23T14:20:41;4.80;;;4.10;;
209;SDS011;90;48.810;9.120;2023-03-23T14:23:15;4.23;;;3.97;;
209;SDS011;90;48.810;9.120;2023-03-23T14:25:43;4.30;;;3.53;;
209;SDS011;90;48.810;9.120;2023-03-23T14:28:17;4.57;;;4.27;;
209;SDS011;90;48.810;9.120;2023-03-23T14:30:46;3.70;;;3.50;;
209;SDS011;90;48.810;9.120;2023-03-23T14:33:13;4.70;;;4.00;;
209;SDS011;90;48.810;9.120;2023-03-23T14:35:42;3.90;;;3.70;;
209;SDS011;90;48.810;9.120;2023-03-23T14:38:12;3.80;;;3.60;;
209;SDS011;90;48.810;9.120;2023-03-23T14:40:43;5.73;;;4.13;;
209;SDS011;90;48.810;9.120;2023-03-23T14:43:10;4.27;;;3.50;;
209;SDS011;90;48.810;9.120;2023-03-23T14:45:41;4.07;;;3.87;;
209;SDS011;90;48.810;9.120;2023-03-23T14:48:09;5.93;;;4.10;;
209;SDS011;90;48.810;9.120;2023-03-23T14:50:47;5.03;;;3.67;;
209;SDS011;90;48.810;9.120;2023-03-23T14:53:18;5.00;;;3.93;;
209;SDS011;90;48.810;9.120;2023-03-23T14:55:47;4.10;;;3.90;;
209;SDS011;90;48.810;9.120;2023-03-23T14:58:16;4.87;;;3.53;;
209;SDS011;90;48.810;9.120;2023-03-23T15:00:45;4.60;;;4.30;;
209;SDS011;90;48.810;9.120;2023-03-23T15:03:16;4.30;;;4.00;;
209;SDS011;90;48.810;9.120;2023-03-23T15:05:47;5.73;;;4.77;;
209;SDS011;90;48.810;9.120;2023-03-23T15:08:18;6.03;;;3.80;;
209;SDS011;90;48.810;9.120;2023-03-23T15:10:54;5.63;;;4.30;;
209;SDS011;90;48.810;9.120;2023-03-23T15:13:30;4.30;;;4.00;;
209;SDS011;90;48.810;9.120;2023-03-23T15:16:01;4.43;;;4.17;;
209;SDS011;90;48.810;9.120;2023-03-23T15:18:34;6.73;;;4.37;;
209;SDS011;90;48.810;9.120;2023-03-23T15:23:48;4.90;;;4.40;;
209;SDS011;90;48.810;9.120;2023-03-23T15:26:22;4.43;;;4.13;;
209;SDS011;90;48.810;9.120;2023-03-23T15:28:58;5.30;;;3.60;;
209;SDS011;90;48.810;9.120;2023-03-23T15:31:27;5.73;;;4.73;;
209;SDS011;90;48.810;9.120;2023-03-23T15:33:55;4.57;;;3.97;;
209;SDS011;90;48.810;9.120;2023-03-23T15:36:30;4.90;;;4.10;;
209;SDS011;90;48.810;9.120;2023-03-23T15:38:58;6.27;;;4.03;;
209;SDS011;90;48.810;9.120;2023-03-23T15:41:27;4.00;;;3.80;;
209;SDS011;90;48.810;9.120;2023-03-23T15:43:57;4.10;;;3.87;;
209;SDS011;90;48.810;9.120;2023-03-23T15:46:35;4.37;;;4.10;;
209;SDS011;90;48.810;9.120;2023-03-23T15:49:07;3.60;;;3.30;;
209;SDS011;90;48.810;9.120;2023-03-23T15:51:40;5.07;;;3.73;;
209;SDS011;90;48.810;9.120;2023-03-23T15:54:08;4.37;;;3.50;;
209;SDS011;90;48.810;9.120;2023-03-23T15:56:38;3.60;;;3.40;;
209;SDS011;90;48.810;9.120;2023-03-23T15:59:05;4.63;;;4.13;;
209;SDS011;90;48.810;9.120;2023-03-23T16:01:31;4.37;;;3.50;;
209;SDS011;90;48.810;9.120;2023-03-23T16:04:00;5.17;;;3.33;;
209;SDS011;90;48.810;9.120;2023-03-23T16:06:31;4.30;;;3.90;;
209;SDS011;90;48.810;9.120;2023-03-23T16:09:01;4.57;;;4.30;;
209;SDS011;90;48.810;9.120;2023-03-23T16:11:29;4.57;;;3.77;;
209;SDS011;90;48.810;9.120;2023-03-23T16:13:57;6.70;;;3.60;;
209;SDS011;90;48.810;9.120;2023-03-23T16:16:25;4.93;;;4.10;;
209;SDS011;90;48.810;9.120;2023-03-23T16:18:53;5.77;;;3.90;;
209;SDS011;90;48.810;9.120;2023-03-23T16:21:20;3.97;;;3.73;;
209;SDS011;90;48.810;9.120;2023-03-23T16:23:47;4.00;;;3.80;;
209;SDS011;90;48.810;9.120;2023-03-23T16:26:16;3.90;;;3.80;;
209;SDS011;90;48.810;9.120;2023-03-23T16:28:43;3.90;;;3.70;;
209;SDS011;90;48.810;9.120;2023-03-23T16:31:10;3.90;;;3.70;;
209;SDS011;90;48.810;9.120;2023-03-23T16:33:37;4.00;;;3.80;;